createdAt,value
2022-12-05T00:01:20.742Z,97997.59
2022-12-05T00:03:26.172Z,97996.75
2022-12-05T00:05:33.727Z,98001.00
2022-12-05T00:07:38.604Z,97988.81
2022-12-05T00:09:43.443Z,97999.91
2022-12-05T00:11:48.834Z,97999.88
2022-12-05T00:13:55.292Z,98004.25
2022-12-05T00:16:00.054Z,98006.06
2022-12-05T00:18:04.847Z,98002.69
2022-12-05T00:20:11.261Z,98012.31
2022-12-05T00:22:18.703Z,98015.84
2022-12-05T00:24:23.509Z,98018.56
2022-12-05T00:26:29.074Z,98025.66
2022-12-05T00:28:34.150Z,98032.56
2022-12-05T00:30:42.377Z,98031.75
2022-12-05T00:32:47.547Z,98039.59
2022-12-05T00:34:52.368Z,98033.50
2022-12-05T00:36:57.150Z,98030.97
2022-12-05T00:39:07.365Z,98026.56
2022-12-05T00:41:14.468Z,98035.19
2022-12-05T00:43:19.217Z,98028.25
2022-12-05T00:45:24.570Z,98030.84
2022-12-05T00:47:29.112Z,98036.94
2022-12-05T00:49:34.142Z,98041.28
2022-12-05T00:51:43.264Z,98041.28
2022-12-05T00:53:51.843Z,98042.09
2022-12-05T00:55:59.233Z,98042.97
2022-12-05T00:58:04.074Z,98043.06
2022-12-05T01:00:10.943Z,98044.78
2022-12-05T01:02:16.190Z,98047.38
2022-12-05T01:04:21.787Z,98044.81
2022-12-05T01:06:27.776Z,98051.75
2022-12-05T01:08:32.797Z,98056.94
2022-12-05T01:10:37.699Z,98063.69
2022-12-05T01:12:45.113Z,98066.19
2022-12-05T01:14:49.913Z,98073.91
2022-12-05T01:16:59.308Z,98067.06
2022-12-05T01:19:08.025Z,98069.69
2022-12-05T01:21:13.607Z,98062.81
2022-12-05T01:23:18.752Z,98062.00
2022-12-05T01:25:23.542Z,98060.25
2022-12-05T01:27:28.815Z,98065.53
2022-12-05T01:29:36.198Z,98074.97
2022-12-05T01:31:41.271Z,98075.06
2022-12-05T01:33:46.178Z,98080.25
2022-12-05T01:35:51.019Z,98079.31
2022-12-05T01:37:55.773Z,98077.56
2022-12-05T01:40:00.558Z,98081.94
2022-12-05T01:42:08.111Z,98081.06
2022-12-05T01:44:42.661Z,98081.94
2022-12-05T01:46:52.554Z,98092.38
2022-12-05T01:49:01.871Z,98094.88
2022-12-05T01:51:06.697Z,98100.06
2022-12-05T01:53:11.619Z,98110.41
2022-12-05T01:55:19.321Z,98112.09
2022-12-05T01:57:25.820Z,98118.94
2022-12-05T01:59:34.935Z,98115.50
2022-12-05T02:01:40.391Z,98113.09
2022-12-05T02:03:49.466Z,98121.91
2022-12-05T02:05:57.006Z,98120.47
2022-12-05T02:08:05.549Z,98120.41
2022-12-05T02:10:11.630Z,98127.41
2022-12-05T02:12:16.481Z,98121.53
2022-12-05T02:14:31.778Z,98121.53
2022-12-05T02:16:51.659Z,98125.25
2022-12-05T02:19:11.658Z,98126.88
2022-12-05T02:21:38.188Z,98128.56
2022-12-05T02:24:14.742Z,98126.03
2022-12-05T02:26:50.863Z,98142.41
2022-12-05T02:29:27.609Z,98145.44
2022-12-05T02:31:37.843Z,98151.50
2022-12-05T02:33:49.153Z,98150.63
2022-12-05T02:36:03.384Z,98153.06
2022-12-05T02:38:18.973Z,98158.28
2022-12-05T02:40:29.431Z,98160.03
2022-12-05T02:42:40.903Z,98158.41
2022-12-05T02:44:51.756Z,98165.28
2022-12-05T02:47:01.768Z,98163.75
2022-12-05T02:49:11.570Z,98165.50
2022-12-05T02:51:20.618Z,98172.31
2022-12-05T02:53:28.740Z,98163.69
2022-12-05T02:55:35.294Z,98166.44
2022-12-05T02:57:41.373Z,98173.75
2022-12-05T02:59:46.223Z,98185.69
2022-12-05T03:01:51.644Z,98175.50
2022-12-05T03:04:00.715Z,98182.34
2022-12-05T03:06:09.566Z,98187.44
2022-12-05T03:08:19.569Z,98185.78
2022-12-05T03:10:29.931Z,98191.94
2022-12-05T03:12:38.680Z,98193.06
2022-12-05T03:14:47.297Z,98196.75
2022-12-05T03:16:54.404Z,98201.28
2022-12-05T03:19:06.450Z,98193.31
2022-12-05T03:21:18.574Z,98193.41
2022-12-05T03:23:27.680Z,98197.81
2022-12-05T03:25:38.885Z,98189.81
2022-12-05T03:27:50.042Z,98195.69
2022-12-05T03:30:02.074Z,98180.22
2022-12-05T03:32:13.634Z,98173.66
2022-12-05T03:34:31.656Z,98158.91
2022-12-05T03:36:42.627Z,98155.53
2022-12-05T03:38:52.586Z,98146.38
2022-12-05T03:41:05.531Z,98160.59
2022-12-05T03:43:14.943Z,98170.53
2022-12-05T03:45:25.999Z,98190.41
2022-12-05T03:47:38.724Z,98201.41
2022-12-05T03:49:51.503Z,98194.41
2022-12-05T03:52:01.398Z,98196.91
2022-12-05T03:54:12.265Z,98195.06
2022-12-05T03:56:21.211Z,98199.38
2022-12-05T03:58:32.066Z,98204.31
2022-12-05T04:00:41.456Z,98206.72
2022-12-05T04:02:52.515Z,98221.34
2022-12-05T04:05:04.459Z,98216.00
2022-12-05T04:07:11.856Z,98212.56
2022-12-05T04:09:20.938Z,98210.88
2022-12-05T04:11:30.284Z,98229.00
2022-12-05T04:13:39.235Z,98232.25
2022-12-05T04:15:56.418Z,98230.50
2022-12-05T04:18:02.961Z,98223.66
2022-12-05T04:20:27.967Z,98227.41
2022-12-05T04:22:33.110Z,98232.84
2022-12-05T04:24:50.370Z,98238.88
2022-12-05T04:27:07.162Z,98243.38
2022-12-05T04:29:19.917Z,98239.94
2022-12-05T04:31:28.649Z,98244.38
2022-12-05T04:33:40.102Z,98245.31
2022-12-05T04:35:55.022Z,98239.59
2022-12-05T04:38:06.980Z,98248.34
2022-12-05T04:40:17.534Z,98252.78
2022-12-05T04:42:25.993Z,98250.94
2022-12-05T04:44:34.707Z,98253.53
2022-12-05T04:46:42.416Z,98253.28
2022-12-05T04:48:51.422Z,98248.94
2022-12-05T04:51:01.005Z,98246.31
2022-12-05T04:53:06.406Z,98245.53
2022-12-05T04:55:15.231Z,98244.00
2022-12-05T04:57:24.811Z,98245.69
2022-12-05T04:59:29.677Z,98255.22
2022-12-05T05:01:40.599Z,98252.03
2022-12-05T05:03:48.707Z,98253.94
2022-12-05T05:05:59.123Z,98253.25
2022-12-05T05:08:07.120Z,98261.00
2022-12-05T05:10:13.718Z,98252.41
2022-12-05T05:12:19.383Z,98266.84
2022-12-05T05:14:24.265Z,98258.19
2022-12-05T05:16:31.743Z,98262.44
2022-12-05T05:18:36.598Z,98264.84
2022-12-05T05:20:41.770Z,98263.88
2022-12-05T05:22:52.901Z,98279.53
2022-12-05T05:24:57.694Z,98270.88
2022-12-05T05:27:02.515Z,98270.06
2022-12-05T05:29:07.766Z,98275.28
2022-12-05T05:31:12.352Z,98273.16
2022-12-05T05:33:17.279Z,98273.91
2022-12-05T05:35:22.514Z,98278.25
2022-12-05T05:37:27.348Z,98278.94
2022-12-05T05:39:34.762Z,98280.69
2022-12-05T05:41:39.709Z,98278.84
2022-12-05T05:43:44.839Z,98285.00
2022-12-05T05:45:49.329Z,98286.84
2022-12-05T05:47:54.651Z,98280.19
2022-12-05T05:49:59.694Z,98284.28
2022-12-05T05:52:04.477Z,98281.66
2022-12-05T05:54:09.286Z,98283.47
2022-12-05T05:56:21.729Z,98285.16
2022-12-05T05:58:26.925Z,98287.66
2022-12-05T06:00:31.785Z,98285.16
2022-12-05T06:02:37.574Z,98291.94
2022-12-05T06:04:42.482Z,98294.44
2022-12-05T06:06:47.314Z,98298.63
2022-12-05T06:08:52.764Z,98292.41
2022-12-05T06:10:57.591Z,98294.13
2022-12-05T06:13:05.556Z,98286.44
2022-12-05T06:15:11.954Z,98286.59
2022-12-05T06:17:17.011Z,98290.94
2022-12-05T06:19:21.894Z,98299.75
2022-12-05T06:21:27.751Z,98298.06
2022-12-05T06:23:32.866Z,98304.19
2022-12-05T06:25:37.686Z,98319.72
2022-12-05T06:27:42.921Z,98312.16
2022-12-05T06:29:52.970Z,98312.22
2022-12-05T06:31:58.009Z,98316.78
2022-12-05T06:34:04.607Z,98317.63
2022-12-05T06:36:11.884Z,98316.94
2022-12-05T06:38:16.953Z,98323.06
2022-12-05T06:40:21.961Z,98324.69
2022-12-05T06:42:26.744Z,98327.31
2022-12-05T06:44:31.539Z,98325.50
2022-12-05T06:46:38.911Z,98329.81
2022-12-05T06:48:43.772Z,98338.19
2022-12-05T06:50:53.928Z,98327.75
2022-12-05T06:52:58.656Z,98332.00
2022-12-05T06:55:03.480Z,98337.25
2022-12-05T06:57:08.242Z,98339.03
2022-12-05T06:59:12.986Z,98351.81
2022-12-05T07:01:31.871Z,98345.75
2022-12-05T07:03:39.303Z,98342.28
2022-12-05T07:05:44.171Z,98341.50
2022-12-05T07:07:49.389Z,98335.63
2022-12-05T07:09:56.964Z,98337.44
2022-12-05T07:12:01.964Z,98345.13
2022-12-05T07:14:14.871Z,98340.97
2022-12-05T07:16:24.175Z,98342.94
2022-12-05T07:18:29.501Z,98343.78
2022-12-05T07:21:10.100Z,98347.13
2022-12-05T07:23:01.852Z,98353.16
2022-12-05T07:25:07.512Z,98347.84
2022-12-05T07:27:12.437Z,98352.94
2022-12-05T07:29:17.239Z,98360.63
2022-12-05T07:31:23.880Z,98353.63
2022-12-05T07:33:28.691Z,98354.47
2022-12-05T07:35:36.111Z,98361.38
2022-12-05T07:37:40.896Z,98363.06
2022-12-05T07:39:48.074Z,98367.31
2022-12-05T07:41:52.901Z,98367.25
2022-12-05T07:43:59.750Z,98375.72
2022-12-05T07:46:06.031Z,98376.69
2022-12-05T07:48:14.460Z,98377.59
2022-12-05T07:50:22.946Z,98375.06
2022-12-05T07:52:30.678Z,98380.19
2022-12-05T07:54:36.000Z,98395.75
2022-12-05T07:56:44.705Z,98387.03
2022-12-05T07:58:53.102Z,98388.78
2022-12-05T08:00:58.298Z,98397.34
2022-12-05T08:03:05.440Z,98394.69
2022-12-05T08:05:10.891Z,98392.97
2022-12-05T08:07:15.941Z,98381.75
2022-12-05T08:09:23.361Z,98375.69
2022-12-05T08:11:30.413Z,98379.03
2022-12-05T08:13:35.293Z,98370.50
2022-12-05T08:15:40.079Z,98378.28
2022-12-05T08:17:44.892Z,98381.69
2022-12-05T08:19:49.702Z,98380.78
2022-12-05T08:21:57.197Z,98383.28
2022-12-05T08:24:02.022Z,98393.56
2022-12-05T08:26:14.733Z,98398.63
2022-12-05T08:28:19.490Z,98391.09
2022-12-05T08:30:24.385Z,98398.66
2022-12-05T08:32:29.652Z,98400.31
2022-12-05T08:34:34.142Z,98401.16
2022-12-05T08:36:39.435Z,98399.50
2022-12-05T08:38:45.058Z,98408.13
2022-12-05T08:40:49.984Z,98411.50
2022-12-05T08:42:57.393Z,98413.25
2022-12-05T08:45:02.339Z,98418.41
2022-12-05T08:47:07.251Z,98418.41
2022-12-05T08:49:13.576Z,98423.50
2022-12-05T08:51:18.571Z,98421.75
2022-12-05T08:53:23.682Z,98425.94
2022-12-05T08:55:28.322Z,98422.47
2022-12-05T08:57:33.111Z,98424.19
2022-12-05T08:59:40.515Z,98430.06
2022-12-05T09:01:45.693Z,98436.09
2022-12-05T09:03:51.116Z,98438.81
2022-12-05T09:05:55.911Z,98441.31
2022-12-05T09:08:01.188Z,98448.88
2022-12-05T09:10:05.959Z,98456.75
2022-12-05T09:12:10.792Z,98460.13
2022-12-05T09:14:16.315Z,98463.47
2022-12-05T09:16:26.701Z,98458.25
2022-12-05T09:18:31.539Z,98465.09
2022-12-05T09:20:36.417Z,98472.13
2022-12-05T09:22:42.960Z,98466.06
2022-12-05T09:24:47.731Z,98466.84
2022-12-05T09:26:53.149Z,98464.28
2022-12-05T09:28:58.036Z,98469.47
2022-12-05T09:31:05.094Z,98468.44
2022-12-05T09:33:12.713Z,98470.09
2022-12-05T09:35:17.802Z,98465.09
2022-12-05T09:37:38.881Z,98471.97
2022-12-05T09:39:46.830Z,98473.59
2022-12-05T09:42:18.645Z,98476.03
2022-12-05T09:44:29.953Z,98470.84
2022-12-05T09:46:46.893Z,98479.31
2022-12-05T09:48:55.416Z,98477.56
2022-12-05T09:51:03.920Z,98478.28
2022-12-05T09:53:16.615Z,98473.09
2022-12-05T09:55:23.731Z,98475.69
2022-12-05T09:57:36.969Z,98473.00
2022-12-05T09:59:42.096Z,98472.94
2022-12-05T10:01:56.106Z,98462.56
2022-12-05T10:04:45.896Z,98468.53
2022-12-05T10:07:01.616Z,98471.19
2022-12-05T10:09:28.831Z,98459.19
2022-12-05T10:11:40.106Z,98464.47
2022-12-05T10:13:56.725Z,98466.16
2022-12-05T10:16:07.755Z,98469.59
2022-12-05T10:18:31.498Z,98473.84
2022-12-05T10:20:46.058Z,98465.16
2022-12-05T10:22:54.809Z,98463.38
2022-12-05T10:25:04.521Z,98459.84
2022-12-05T10:27:11.871Z,98462.50
2022-12-05T10:29:26.614Z,98464.19
2022-12-05T10:31:35.304Z,98461.59
2022-12-05T10:33:46.028Z,98463.13
2022-12-05T10:35:54.551Z,98457.94
2022-12-05T10:38:01.931Z,98466.56
2022-12-05T10:40:07.767Z,98467.44
2022-12-05T10:42:16.702Z,98467.31
2022-12-05T10:44:21.694Z,98465.53
2022-12-05T10:46:26.717Z,98469.66
2022-12-05T10:48:33.338Z,98464.66
2022-12-05T10:50:42.488Z,98473.22
2022-12-05T10:52:50.859Z,98467.16
2022-12-05T10:55:00.503Z,98461.94
2022-12-05T10:57:23.562Z,98457.63
2022-12-05T10:59:46.507Z,98456.78
2022-12-05T11:01:54.652Z,98461.94
2022-12-05T11:04:01.778Z,98462.72
2022-12-05T11:06:19.740Z,98468.75
2022-12-05T11:08:56.070Z,98468.97
2022-12-05T11:11:05.252Z,98487.22
2022-12-05T11:13:18.531Z,98492.28
2022-12-05T11:15:26.103Z,98479.25
2022-12-05T11:17:34.990Z,98475.69
2022-12-05T11:19:41.251Z,98474.66
2022-12-05T11:21:46.331Z,98477.16
2022-12-05T11:23:54.190Z,98477.13
2022-12-05T11:26:00.549Z,98476.41
2022-12-05T11:28:26.668Z,98472.91
2022-12-05T11:30:32.967Z,98476.44
2022-12-05T11:32:37.849Z,98475.59
2022-12-05T11:34:48.376Z,98476.44
2022-12-05T11:36:59.485Z,98475.69
2022-12-05T11:39:07.162Z,98468.75
2022-12-05T11:41:37.979Z,98477.31
2022-12-05T11:44:00.111Z,98474.75
2022-12-05T11:46:13.843Z,98469.81
2022-12-05T11:48:38.224Z,98469.75
2022-12-05T11:50:53.174Z,98472.47
2022-12-05T11:53:08.510Z,98473.53
2022-12-05T11:55:23.005Z,98466.53
2022-12-05T11:57:46.201Z,98465.47
2022-12-05T12:00:15.390Z,98474.00
2022-12-05T12:02:33.845Z,98461.91
2022-12-05T12:04:52.351Z,98453.22
2022-12-05T12:07:09.242Z,98452.13
2022-12-05T12:09:33.292Z,98450.19
2022-12-05T12:11:48.400Z,98446.53
2022-12-05T12:14:04.105Z,98442.84
2022-12-05T12:16:18.508Z,98429.75
2022-12-05T12:18:42.852Z,98432.09
2022-12-05T12:21:02.393Z,98427.63
2022-12-05T12:23:21.561Z,98435.25
2022-12-05T12:25:36.445Z,98422.94
2022-12-05T12:27:58.662Z,98430.34
2022-12-05T12:30:14.882Z,98431.03
2022-12-05T12:32:30.574Z,98432.72
2022-12-05T12:35:10.689Z,98434.69
2022-12-05T12:37:24.058Z,98434.78
2022-12-05T12:39:42.054Z,98437.47
2022-12-05T12:42:02.747Z,98438.53
2022-12-05T12:44:36.618Z,98441.28
2022-12-05T12:46:49.034Z,98436.34
2022-12-05T12:49:09.749Z,98448.59
2022-12-05T12:51:16.795Z,98457.22
2022-12-05T12:53:57.452Z,98450.44
2022-12-05T12:56:11.291Z,98450.44
2022-12-05T12:58:30.895Z,98453.84
2022-12-05T13:00:52.879Z,98446.13
2022-12-05T13:03:03.156Z,98453.06
2022-12-05T13:05:11.498Z,98447.84
2022-12-05T13:07:20.464Z,98443.53
2022-12-05T13:09:30.986Z,98446.03
2022-12-05T13:11:40.936Z,98450.28
2022-12-05T13:13:49.986Z,98442.50
2022-12-05T13:16:06.395Z,98440.75
2022-12-05T13:18:19.034Z,98435.56
2022-12-05T13:20:27.858Z,98439.19
2022-12-05T13:22:33.890Z,98439.06
2022-12-05T13:24:42.677Z,98439.94
2022-12-05T13:26:51.082Z,98442.59
2022-12-05T13:28:58.436Z,98443.53
2022-12-05T13:31:06.674Z,98436.69
2022-12-05T13:33:13.084Z,98445.28
2022-12-05T13:35:36.441Z,98447.09
2022-12-05T13:38:02.355Z,98455.81
2022-12-05T13:40:34.250Z,98456.91
2022-12-05T13:42:39.387Z,98452.81
2022-12-05T13:44:46.639Z,98462.31
2022-12-05T13:46:55.204Z,98458.00
2022-12-05T13:49:07.186Z,98455.28
2022-12-05T13:51:17.086Z,98466.41
2022-12-05T13:53:32.708Z,98464.56
2022-12-05T13:55:38.991Z,98461.22
2022-12-05T13:57:51.065Z,98464.00
2022-12-05T14:00:05.964Z,98462.16
2022-12-05T14:02:52.852Z,98466.47
2022-12-05T14:05:00.360Z,98471.59
2022-12-05T14:07:05.238Z,98471.56
2022-12-05T14:09:31.550Z,98477.59
2022-12-05T14:11:36.125Z,98471.75
2022-12-05T14:13:45.233Z,98472.56
2022-12-05T14:15:51.022Z,98471.66
2022-12-05T14:18:02.492Z,98473.28
2022-12-05T14:20:26.097Z,98468.97
2022-12-05T14:23:05.571Z,98464.75
2022-12-05T14:25:22.645Z,98470.06
2022-12-05T14:27:41.340Z,98468.50
2022-12-05T14:30:02.136Z,98468.47
2022-12-05T14:32:17.371Z,98470.09
2022-12-05T14:34:26.752Z,98467.50
2022-12-05T14:36:34.192Z,98466.56
2022-12-05T14:38:40.293Z,98464.75
2022-12-05T14:40:47.348Z,98459.56
2022-12-05T14:42:59.002Z,98462.13
2022-12-05T14:45:19.871Z,98460.56
2022-12-05T14:47:28.135Z,98466.59
2022-12-05T14:50:02.767Z,98462.41
2022-12-05T14:52:15.132Z,98463.38
2022-12-05T14:54:21.515Z,98461.56
2022-12-05T14:56:29.394Z,98469.44
2022-12-05T14:58:40.163Z,98466.91
2022-12-05T15:00:48.207Z,98469.44
2022-12-05T15:02:56.214Z,98464.22
2022-12-05T15:05:06.345Z,98467.66
2022-12-05T15:07:18.604Z,98467.03
2022-12-05T15:09:44.556Z,98472.31
2022-12-05T15:11:49.479Z,98481.06
2022-12-05T15:13:55.014Z,98467.16
2022-12-05T15:16:05.791Z,98473.06
2022-12-05T15:18:20.707Z,98471.22
2022-12-05T15:20:40.406Z,98471.25
2022-12-05T15:22:48.708Z,98479.78
2022-12-05T15:24:53.570Z,98475.53
2022-12-05T15:27:00.016Z,98481.59
2022-12-05T15:29:08.790Z,98480.69
2022-12-05T15:31:16.475Z,98476.31
2022-12-05T15:33:21.297Z,98479.84
2022-12-05T15:35:28.673Z,98477.25
2022-12-05T15:37:38.836Z,98472.00
2022-12-05T15:39:57.630Z,98487.69
2022-12-05T15:42:02.495Z,98485.25
2022-12-05T15:44:08.118Z,98482.69
2022-12-05T15:46:24.516Z,98481.09
2022-12-05T15:48:30.448Z,98489.78
2022-12-05T15:50:39.937Z,98483.59
2022-12-05T15:52:51.994Z,98493.00
2022-12-05T15:55:03.168Z,98492.13
2022-12-05T15:57:12.155Z,98501.56
2022-12-05T15:59:21.610Z,98498.19
2022-12-05T16:01:28.983Z,98498.97
2022-12-05T16:03:43.656Z,98498.81
2022-12-05T16:05:53.821Z,98503.22
2022-12-05T16:07:59.564Z,98504.81
2022-12-05T16:10:08.988Z,98509.25
2022-12-05T16:12:28.772Z,98508.41
2022-12-05T16:17:05.389Z,98510.31
2022-12-05T16:19:18.331Z,98502.72
2022-12-05T16:21:39.116Z,98510.47
2022-12-05T16:23:45.506Z,98512.91
2022-12-05T16:25:53.098Z,98517.84
2022-12-05T16:28:02.846Z,98519.47
2022-12-05T16:30:13.096Z,98522.94
2022-12-05T16:32:23.834Z,98519.53
2022-12-05T16:34:30.555Z,98523.13
2022-12-05T16:36:36.006Z,98527.44
2022-12-05T16:38:43.390Z,98521.34
2022-12-05T16:41:00.069Z,98516.53
2022-12-05T16:43:05.498Z,98522.03
2022-12-05T16:45:41.444Z,98513.78
2022-12-05T16:48:01.362Z,98523.00
2022-12-05T16:50:25.688Z,98530.78
2022-12-05T16:52:33.699Z,98534.31
2022-12-05T16:54:40.863Z,98531.69
2022-12-05T16:56:45.822Z,98528.31
2022-12-05T16:58:50.961Z,98524.81
2022-12-05T17:01:02.005Z,98524.94
2022-12-05T17:03:33.339Z,98530.19
2022-12-05T17:05:38.612Z,98533.59
2022-12-05T17:07:43.826Z,98539.88
2022-12-05T17:09:53.702Z,98537.31
2022-12-05T17:12:06.781Z,98539.13
2022-12-05T17:14:15.945Z,98553.09
2022-12-05T17:16:21.752Z,98548.75
2022-12-05T17:18:31.978Z,98548.78
2022-12-05T17:20:39.203Z,98548.66
2022-12-05T17:22:44.071Z,98546.03
2022-12-05T17:24:49.091Z,98556.19
2022-12-05T17:26:56.994Z,98558.63
2022-12-05T17:29:01.780Z,98556.94
2022-12-05T17:31:06.673Z,98557.72
2022-12-05T17:33:13.564Z,98554.16
2022-12-05T17:35:23.981Z,98555.84
2022-12-05T17:37:28.816Z,98558.31
2022-12-05T17:39:33.625Z,98559.97
2022-12-05T17:41:38.759Z,98554.88
2022-12-05T17:43:46.136Z,98561.69
2022-12-05T17:45:51.314Z,98555.72
2022-12-05T17:47:55.915Z,98553.25
2022-12-05T17:50:01.335Z,98556.69
2022-12-05T17:52:24.317Z,98550.75
2022-12-05T17:54:32.331Z,98549.91
2022-12-05T17:56:37.201Z,98549.84
2022-12-05T17:58:42.501Z,98547.19
2022-12-05T18:00:47.744Z,98541.13
2022-12-05T18:02:53.360Z,98545.38
2022-12-05T18:04:58.546Z,98543.63
2022-12-05T18:07:03.286Z,98544.03
2022-12-05T18:09:10.778Z,98547.63
2022-12-05T18:11:16.908Z,98546.06
2022-12-05T18:13:22.238Z,98552.13
2022-12-05T18:15:27.067Z,98546.03
2022-12-05T18:17:34.083Z,98539.31
2022-12-05T18:19:38.981Z,98539.31
2022-12-05T18:21:43.921Z,98536.72
2022-12-05T18:23:54.586Z,98538.59
2022-12-05T18:26:05.555Z,98541.97
2022-12-05T18:28:11.657Z,98551.63
2022-12-05T18:30:18.847Z,98544.78
2022-12-05T18:32:24.143Z,98553.44
2022-12-05T18:34:29.125Z,98544.91
2022-12-05T18:36:33.959Z,98549.28
2022-12-05T18:38:39.222Z,98551.88
2022-12-05T18:40:43.961Z,98557.97
2022-12-05T18:42:52.481Z,98566.59
2022-12-05T18:44:57.507Z,98569.97
2022-12-05T18:47:02.834Z,98573.25
2022-12-05T18:49:08.048Z,98564.56
2022-12-05T18:51:13.338Z,98561.06
2022-12-05T18:53:18.093Z,98565.34
2022-12-05T18:55:39.454Z,98572.13
2022-12-05T18:57:52.608Z,98572.97
2022-12-05T18:59:57.462Z,98573.78
2022-12-05T19:02:05.540Z,98572.81
2022-12-05T19:04:12.921Z,98568.38
2022-12-05T19:06:20.493Z,98580.34
2022-12-05T19:08:25.477Z,98575.13
2022-12-05T19:10:30.315Z,98581.97
2022-12-05T19:12:35.234Z,98577.59
2022-12-05T19:14:42.654Z,98573.19
2022-12-05T19:16:48.558Z,98570.59
2022-12-05T19:19:00.061Z,98569.63
2022-12-05T19:21:04.867Z,98570.41
2022-12-05T19:23:09.653Z,98568.66
2022-12-05T19:25:14.442Z,98572.06
2022-12-05T19:27:19.198Z,98568.66
2022-12-05T19:29:24.022Z,98568.66
2022-12-05T19:31:32.473Z,98570.38
2022-12-05T19:33:39.886Z,98565.22
2022-12-05T19:35:44.655Z,98566.97
2022-12-05T19:37:49.423Z,98562.66
2022-12-05T19:39:54.526Z,98569.53
2022-12-05T19:42:00.402Z,98570.47
2022-12-05T19:44:05.495Z,98568.78
2022-12-05T19:46:11.796Z,98579.19
2022-12-05T19:48:19.300Z,98574.91
2022-12-05T19:50:24.094Z,98575.75
2022-12-05T19:52:28.911Z,98576.53
2022-12-05T19:54:33.866Z,98577.31
2022-12-05T19:56:39.400Z,98580.75
2022-12-05T19:58:46.521Z,98575.56
2022-12-05T20:00:52.706Z,98569.47
2022-12-05T20:02:59.711Z,98572.91
2022-12-05T20:05:07.676Z,98572.03
2022-12-05T20:07:12.649Z,98573.81
2022-12-05T20:09:19.556Z,98575.53
2022-12-05T20:11:29.147Z,98571.16
2022-12-05T20:13:49.479Z,98572.00
2022-12-05T20:15:54.501Z,98567.72
2022-12-05T20:17:59.541Z,98574.66
2022-12-05T20:20:07.275Z,98576.44
2022-12-05T20:22:12.085Z,98573.88
2022-12-05T20:24:17.223Z,98579.06
2022-12-05T20:26:24.433Z,98569.56
2022-12-05T20:28:29.278Z,98575.56
2022-12-05T20:30:34.520Z,98569.59
2022-12-05T20:32:39.348Z,98560.06
2022-12-05T20:34:44.236Z,98551.47
2022-12-05T20:36:57.119Z,98551.50
2022-12-05T20:39:04.491Z,98552.56
2022-12-05T20:41:11.179Z,98550.03
2022-12-05T20:43:16.033Z,98553.44
2022-12-05T20:45:20.985Z,98542.16
2022-12-05T20:47:25.755Z,98539.63
2022-12-05T20:49:30.611Z,98532.91
2022-12-05T20:51:37.231Z,98544.09
2022-12-05T20:53:46.527Z,98548.38
2022-12-05T20:55:52.479Z,98550.03
2022-12-05T20:57:59.277Z,98549.06
2022-12-05T21:00:08.897Z,98542.91
2022-12-05T21:02:13.694Z,98548.06
2022-12-05T21:04:18.578Z,98542.84
2022-12-05T21:06:26.184Z,98539.44
2022-12-05T21:08:30.940Z,98531.88
2022-12-05T21:10:38.491Z,98541.44
2022-12-05T21:12:43.246Z,98526.25
2022-12-05T21:14:48.363Z,98524.66
2022-12-05T21:16:53.332Z,98529.13
2022-12-05T21:18:58.387Z,98531.94
2022-12-05T21:21:04.262Z,98533.78
2022-12-05T21:23:09.054Z,98532.88
2022-12-05T21:25:13.819Z,98532.91
2022-12-05T21:27:21.205Z,98532.91
2022-12-05T21:29:26.058Z,98532.94
2022-12-05T21:31:32.966Z,98539.03
2022-12-05T21:33:37.893Z,98535.69
2022-12-05T21:35:42.858Z,98542.66
2022-12-05T21:37:47.621Z,98548.72
2022-12-05T21:39:52.405Z,98544.50
2022-12-05T21:41:58.295Z,98553.16
2022-12-05T21:44:05.794Z,98555.78
2022-12-05T21:46:10.721Z,98556.75
2022-12-05T21:48:15.746Z,98559.38
2022-12-05T21:50:20.679Z,98556.84
2022-12-05T21:52:25.829Z,98559.47
2022-12-05T21:54:35.636Z,98552.63
2022-12-05T21:56:49.519Z,98550.94
2022-12-05T21:58:55.070Z,98550.16
2022-12-05T22:01:02.969Z,98551.97
2022-12-05T22:03:08.563Z,98551.19
2022-12-05T22:05:13.640Z,98552.13
2022-12-05T22:07:18.626Z,98553.84
2022-12-05T22:09:23.404Z,98547.84
2022-12-05T22:11:28.693Z,98549.59
2022-12-05T22:13:33.377Z,98552.28
2022-12-05T22:15:40.926Z,98550.63
2022-12-05T22:17:52.527Z,98554.13
2022-12-05T22:19:57.670Z,98552.41
2022-12-05T22:22:02.745Z,98551.56
2022-12-05T22:24:07.954Z,98549.88
2022-12-05T22:26:15.252Z,98558.44
2022-12-05T22:28:20.196Z,98563.69
2022-12-05T22:30:25.006Z,98558.53
2022-12-05T22:32:29.766Z,98555.13
2022-12-05T22:34:37.170Z,98556.84
2022-12-05T22:36:41.950Z,98555.97
2022-12-05T22:38:48.950Z,98557.69
2022-12-05T22:40:57.498Z,98549.13
2022-12-05T22:43:02.290Z,98550.91
2022-12-05T22:45:09.970Z,98552.72
2022-12-05T22:47:15.288Z,98561.34
2022-12-05T22:49:24.947Z,98560.59
2022-12-05T22:51:32.719Z,98564.97
2022-12-05T22:53:38.664Z,98558.06
2022-12-05T22:55:43.472Z,98570.97
2022-12-05T22:57:49.330Z,98569.28
2022-12-05T22:59:55.177Z,98568.44
2022-12-05T23:02:00.067Z,98562.38
2022-12-05T23:04:08.475Z,98566.66
2022-12-05T23:06:15.251Z,98564.06
2022-12-05T23:08:22.587Z,98562.38
2022-12-05T23:10:28.025Z,98558.97
2022-12-05T23:12:32.890Z,98560.69
2022-12-05T23:14:37.671Z,98558.16
2022-12-05T23:16:42.502Z,98553.00
2022-12-05T23:18:50.113Z,98553.00
2022-12-05T23:20:57.959Z,98556.44
2022-12-05T23:23:02.717Z,98552.97
2022-12-05T23:25:10.848Z,98545.19
2022-12-05T23:27:18.773Z,98555.47
2022-12-05T23:29:23.673Z,98555.47
2022-12-05T23:31:28.763Z,98547.78
2022-12-05T23:33:33.402Z,98558.13
2022-12-05T23:35:38.337Z,98547.84
2022-12-05T23:37:43.155Z,98547.03
2022-12-05T23:39:47.923Z,98539.34
2022-12-05T23:41:55.727Z,98539.25
2022-12-05T23:44:00.608Z,98542.63
2022-12-05T23:46:06.473Z,98546.00
2022-12-05T23:48:11.243Z,98538.22
2022-12-05T23:50:16.045Z,98544.97
2022-12-05T23:52:20.910Z,98543.19
2022-12-05T23:54:25.798Z,98540.53
2022-12-05T23:56:32.748Z,98533.56
2022-12-05T23:58:40.712Z,98536.03
